Time;durP1;ratioP1;P1;durP2;ratioP2;P2;SDS_P1;SDS_P2;PMS_P1;PMS_P2;Temp;Humidity;BMP_temperature;BMP_pressure;BME280_temperature;BME280_humidity;BME280_pressure;Samples;Min_cycle;Max_cycle;Signal;HPM_P1;HPM_P2
2022/10/31 00:01:11;;;;;;;14.80;7.37;;;11.10;99.90;;;;;;5094359;28;20572;-74
2022/10/31 00:03:38;;;;;;;17.87;8.00;;;11.00;99.90;;;;;;5106413;28;20475;-74
2022/10/31 00:06:06;;;;;;;18.60;7.43;;;11.00;99.90;;;;;;5099855;28;20455;-73
2022/10/31 00:08:33;;;;;;;14.63;7.40;;;11.10;99.90;;;;;;5101595;28;20442;-73
2022/10/31 00:10:59;;;;;;;20.27;7.70;;;11.10;99.90;;;;;;5094796;28;20446;-73
2022/10/31 00:13:26;;;;;;;19.60;7.30;;;11.10;99.90;;;;;;5100286;28;20475;-74
2022/10/31 00:15:53;;;;;;;17.03;7.00;;;11.10;99.90;;;;;;5099609;28;21027;-73
2022/10/31 00:18:19;;;;;;;11.53;6.87;;;11.10;99.90;;;;;;5105797;28;20801;-73
2022/10/31 00:20:46;;;;;;;14.13;7.40;;;11.00;99.90;;;;;;5093697;28;20860;-73
2022/10/31 00:23:14;;;;;;;11.27;7.40;;;11.10;99.90;;;;;;5099184;28;20464;-74
2022/10/31 00:25:41;;;;;;;15.50;7.13;;;11.10;99.90;;;;;;5102549;28;20448;-74
2022/10/31 00:28:11;;;;;;;16.93;7.10;;;11.00;99.90;;;;;;5108481;28;20477;-74
2022/10/31 00:30:38;;;;;;;19.50;9.50;;;11.10;99.90;;;;;;5091047;28;21032;-74
2022/10/31 00:33:05;;;;;;;17.90;8.90;;;11.00;99.90;;;;;;5091219;28;20468;-74
2022/10/31 00:35:31;;;;;;;17.23;7.47;;;11.10;99.90;;;;;;5090468;28;20993;-74
2022/10/31 00:37:58;;;;;;;15.53;8.50;;;11.00;99.90;;;;;;5091114;28;20499;-73
2022/10/31 00:40:26;;;;;;;15.27;8.33;;;11.00;99.90;;;;;;5090767;28;20491;-74
2022/10/31 00:42:53;;;;;;;23.83;8.43;;;11.00;99.90;;;;;;5090967;28;20989;-73
2022/10/31 00:45:19;;;;;;;16.70;8.13;;;11.00;99.90;;;;;;5097108;28;20955;-73
2022/10/31 00:47:46;;;;;;;19.90;8.67;;;10.90;99.90;;;;;;5096250;28;20514;-74
2022/10/31 00:50:13;;;;;;;23.27;7.83;;;10.90;99.90;;;;;;5097895;28;20467;-73
2022/10/31 00:52:39;;;;;;;14.17;7.67;;;10.90;99.90;;;;;;5101337;28;20476;-73
2022/10/31 00:55:06;;;;;;;13.37;8.00;;;10.80;99.90;;;;;;5099876;28;20452;-73
2022/10/31 00:57:34;;;;;;;13.03;8.00;;;10.70;99.90;;;;;;5099642;28;20450;-73
2022/10/31 01:00:01;;;;;;;12.93;7.73;;;10.70;99.90;;;;;;5090363;28;20452;-73
2022/10/31 01:02:28;;;;;;;13.00;8.50;;;10.70;99.90;;;;;;5089878;28;20980;-73
2022/10/31 01:04:55;;;;;;;11.00;7.63;;;10.70;99.90;;;;;;5090729;28;20858;-73
2022/10/31 01:07:21;;;;;;;19.90;8.37;;;10.70;99.90;;;;;;5090613;28;20820;-74
2022/10/31 01:09:48;;;;;;;13.50;7.67;;;10.70;99.90;;;;;;5090595;28;20860;-73
2022/10/31 01:12:14;;;;;;;18.20;8.00;;;10.70;99.90;;;;;;5090476;28;20518;-73
2022/10/31 01:14:45;;;;;;;21.73;7.90;;;10.70;99.90;;;;;;5091527;28;20444;-73
2022/10/31 01:17:12;;;;;;;16.97;7.90;;;10.60;99.90;;;;;;5100931;28;20549;-73
2022/10/31 01:19:38;;;;;;;17.73;7.87;;;10.50;99.90;;;;;;5102242;28;20511;-74
2022/10/31 01:22:05;;;;;;;16.40;8.03;;;10.50;99.90;;;;;;5097510;28;20484;-74
2022/10/31 01:24:32;;;;;;;13.37;7.80;;;10.50;99.90;;;;;;5094802;28;20447;-74
2022/10/31 01:26:59;;;;;;;16.10;7.73;;;10.50;99.90;;;;;;5101379;28;20443;-74
2022/10/31 01:29:25;;;;;;;12.77;7.80;;;10.60;99.90;;;;;;5104520;28;20446;-74
2022/10/31 01:31:53;;;;;;;13.50;8.17;;;10.50;99.90;;;;;;5097043;28;20507;-73
2022/10/31 01:34:20;;;;;;;12.67;7.57;;;10.50;99.90;;;;;;5098099;28;20456;-74
2022/10/31 01:36:50;;;;;;;13.90;7.23;;;10.50;99.90;;;;;;5100271;28;20447;-73
2022/10/31 01:39:18;;;;;;;8.23;6.40;;;10.50;99.90;;;;;;5103349;28;20970;-73
2022/10/31 01:41:46;;;;;;;18.47;7.53;;;10.50;99.90;;;;;;5110232;28;20488;-73
2022/10/31 01:44:50;;;;;;;16.10;7.23;;;10.50;99.90;;;;;;5104126;28;20502;-73
2022/10/31 01:47:26;;;;;;;15.80;7.70;;;10.50;99.90;;;;;;5106006;28;20446;-73
2022/10/31 01:49:58;;;;;;;16.37;8.50;;;10.50;99.90;;;;;;5102708;28;20446;-73
2022/10/31 01:52:28;;;;;;;17.17;7.90;;;10.50;99.90;;;;;;5108607;28;20512;-74
2022/10/31 01:54:59;;;;;;;12.70;8.03;;;10.50;99.90;;;;;;5097140;28;20508;-74
2022/10/31 01:57:27;;;;;;;21.03;8.43;;;10.60;99.90;;;;;;5097161;28;20446;-73
2022/10/31 01:59:58;;;;;;;15.30;8.27;;;10.60;99.90;;;;;;5096904;28;20452;-74
2022/10/31 02:02:28;;;;;;;16.57;8.80;;;10.60;99.90;;;;;;5109865;28;20484;-74
2022/10/31 02:04:55;;;;;;;11.80;8.03;;;10.60;99.90;;;;;;5094292;28;20444;-73
2022/10/31 02:07:27;;;;;;;16.40;8.60;;;10.60;99.90;;;;;;5093457;28;20443;-73
2022/10/31 02:09:55;;;;;;;18.23;8.87;;;10.60;99.90;;;;;;5094308;28;20439;-73
2022/10/31 02:12:23;;;;;;;15.03;8.00;;;10.60;99.90;;;;;;5104046;28;20462;-73
2022/10/31 02:14:49;;;;;;;18.23;8.83;;;10.50;99.90;;;;;;5107761;28;20449;-73
2022/10/31 02:17:16;;;;;;;14.23;8.30;;;10.50;99.90;;;;;;5101744;28;20443;-74
2022/10/31 02:19:52;;;;;;;17.40;7.80;;;10.40;99.90;;;;;;5093561;28;20445;-73
2022/10/31 02:22:27;;;;;;;17.27;7.33;;;10.40;99.90;;;;;;5093591;28;20483;-73
2022/10/31 02:25:20;;;;;;;15.13;7.57;;;10.40;99.90;;;;;;5095164;28;20450;-73
2022/10/31 02:28:01;;;;;;;16.20;8.30;;;10.30;99.90;;;;;;5097618;28;20483;-74
2022/10/31 02:30:39;;;;;;;10.97;8.10;;;10.30;99.90;;;;;;5099147;27;20465;-73
2022/10/31 02:33:20;;;;;;;16.07;8.20;;;10.30;99.90;;;;;;5096493;28;20494;-73
2022/10/31 02:35:56;;;;;;;11.27;7.77;;;10.30;99.90;;;;;;5102703;28;20953;-73
2022/10/31 02:38:35;;;;;;;18.10;8.73;;;10.30;99.90;;;;;;5108978;28;20476;-73
2022/10/31 02:41:11;;;;;;;12.13;7.70;;;10.20;99.90;;;;;;5096365;28;20533;-74
2022/10/31 02:43:46;;;;;;;13.83;7.40;;;10.20;99.90;;;;;;5100391;28;21441;-74
2022/10/31 02:46:20;;;;;;;9.53;6.93;;;10.20;99.90;;;;;;5096493;28;20454;-74
2022/10/31 02:48:51;;;;;;;23.30;7.53;;;10.10;99.90;;;;;;5109356;28;20938;-74
2022/10/31 02:51:18;;;;;;;16.10;7.50;;;10.10;99.90;;;;;;5104475;28;20448;-74
2022/10/31 02:53:45;;;;;;;15.37;8.50;;;10.10;99.90;;;;;;5104271;28;20457;-74
2022/10/31 02:56:14;;;;;;;11.63;7.30;;;10.10;99.90;;;;;;5100523;28;20447;-74
2022/10/31 02:58:43;;;;;;;20.73;7.43;;;10.20;99.90;;;;;;5096807;28;20442;-74
2022/10/31 03:01:26;;;;;;;12.00;8.20;;;10.20;99.90;;;;;;5108133;28;20510;-74
2022/10/31 03:04:08;;;;;;;17.70;7.83;;;10.20;99.90;;;;;;5103716;28;20481;-74
2022/10/31 03:06:41;;;;;;;13.07;8.13;;;10.30;99.90;;;;;;5098127;28;20481;-74
2022/10/31 03:09:15;;;;;;;9.60;7.00;;;10.30;99.90;;;;;;5099185;28;20454;-74
2022/10/31 03:11:51;;;;;;;16.70;7.73;;;10.40;99.90;;;;;;5100472;28;20438;-74
2022/10/31 03:14:23;;;;;;;15.00;7.23;;;10.40;99.90;;;;;;5098483;28;20456;-74
2022/10/31 03:16:51;;;;;;;10.93;7.80;;;10.40;99.90;;;;;;5109061;28;20452;-74
2022/10/31 03:19:23;;;;;;;10.97;6.80;;;10.40;99.90;;;;;;5103890;27;20488;-74
2022/10/31 03:21:56;;;;;;;17.17;7.87;;;10.50;99.90;;;;;;5109121;28;20521;-74
2022/10/31 03:24:27;;;;;;;16.50;7.93;;;10.50;99.90;;;;;;5109813;28;20447;-74
2022/10/31 03:26:58;;;;;;;17.93;6.90;;;10.50;99.90;;;;;;5107133;28;20463;-74
2022/10/31 03:29:29;;;;;;;11.83;7.33;;;10.60;99.90;;;;;;5101707;28;20462;-74
2022/10/31 03:31:59;;;;;;;23.10;6.83;;;10.60;99.90;;;;;;5109166;28;20461;-74
2022/10/31 03:34:30;;;;;;;20.97;7.47;;;10.60;99.90;;;;;;5097958;28;21040;-74
2022/10/31 03:37:01;;;;;;;15.43;7.40;;;10.60;99.90;;;;;;5098167;28;20854;-74
2022/10/31 03:39:28;;;;;;;12.50;7.80;;;10.60;99.90;;;;;;5100035;28;21017;-74
2022/10/31 03:41:58;;;;;;;18.83;8.23;;;10.50;99.90;;;;;;5109193;28;21011;-74
2022/10/31 03:44:27;;;;;;;17.43;8.80;;;10.50;99.90;;;;;;5107718;28;20450;-74
2022/10/31 03:46:54;;;;;;;14.43;8.23;;;10.40;99.90;;;;;;5107177;28;20448;-74
2022/10/31 03:49:21;;;;;;;17.23;9.03;;;10.30;99.90;;;;;;5105522;28;20476;-74
2022/10/31 03:51:55;;;;;;;11.87;8.40;;;10.30;99.90;;;;;;5102040;28;20854;-73
2022/10/31 03:54:27;;;;;;;18.17;8.83;;;10.20;99.90;;;;;;5098221;28;20501;-74
2022/10/31 03:56:58;;;;;;;14.87;8.67;;;10.10;99.90;;;;;;5106275;28;20943;-73
2022/10/31 03:59:29;;;;;;;12.40;7.80;;;10.00;99.90;;;;;;5100690;28;20504;-74
2022/10/31 04:02:01;;;;;;;11.53;7.93;;;10.00;99.90;;;;;;5094457;28;20477;-74
2022/10/31 04:04:29;;;;;;;13.53;8.17;;;9.90;99.90;;;;;;5095185;28;20506;-74
2022/10/31 04:07:01;;;;;;;14.03;8.13;;;9.90;99.90;;;;;;5097689;28;20447;-74
2022/10/31 04:09:30;;;;;;;15.00;7.47;;;9.80;99.90;;;;;;5102137;28;20447;-74
2022/10/31 04:11:59;;;;;;;16.70;8.40;;;9.80;99.90;;;;;;5106112;28;20864;-74
2022/10/31 04:14:28;;;;;;;12.60;8.03;;;9.80;99.90;;;;;;5096957;28;20446;-74
2022/10/31 04:16:55;;;;;;;11.90;8.20;;;9.70;99.90;;;;;;5100773;28;20459;-74
2022/10/31 04:19:22;;;;;;;16.77;7.90;;;9.70;99.90;;;;;;5102941;28;21037;-74
2022/10/31 04:21:48;;;;;;;18.67;7.50;;;9.70;99.90;;;;;;5100358;28;20539;-74
2022/10/31 04:24:16;;;;;;;13.83;7.80;;;9.70;99.90;;;;;;5104731;28;20453;-74
2022/10/31 04:26:43;;;;;;;15.83;8.83;;;9.60;99.90;;;;;;5106514;28;20447;-74
2022/10/31 04:29:10;;;;;;;11.80;7.83;;;9.60;99.90;;;;;;5103087;28;20446;-74
2022/10/31 04:31:36;;;;;;;20.97;8.40;;;9.60;99.90;;;;;;5099062;28;20957;-74
2022/10/31 04:34:03;;;;;;;10.80;8.80;;;9.60;99.90;;;;;;5094377;28;20476;-74
2022/10/31 04:36:30;;;;;;;14.40;9.00;;;9.60;99.90;;;;;;5094541;28;20480;-74
2022/10/31 04:38:56;;;;;;;17.33;8.90;;;9.60;99.90;;;;;;5099876;28;20477;-74
2022/10/31 04:41:24;;;;;;;19.90;8.70;;;9.60;99.90;;;;;;5099147;28;20479;-73
2022/10/31 04:43:51;;;;;;;10.50;8.67;;;9.60;99.90;;;;;;5096597;28;20466;-73
2022/10/31 04:46:18;;;;;;;12.90;9.33;;;9.60;99.90;;;;;;5094105;28;20451;-73
2022/10/31 04:48:44;;;;;;;13.23;8.67;;;9.70;99.90;;;;;;5101200;28;20458;-73
2022/10/31 04:51:11;;;;;;;10.50;8.73;;;9.80;99.90;;;;;;5102794;28;20454;-73
2022/10/31 04:53:38;;;;;;;15.10;8.93;;;9.80;99.90;;;;;;5101627;28;20494;-74
2022/10/31 04:56:05;;;;;;;13.90;9.07;;;9.80;99.90;;;;;;5093708;28;20508;-74
2022/10/31 04:58:33;;;;;;;12.63;9.70;;;9.80;99.90;;;;;;5100091;28;20450;-73
2022/10/31 05:01:00;;;;;;;10.43;8.17;;;9.80;99.90;;;;;;5102231;28;20509;-73
2022/10/31 05:03:27;;;;;;;14.33;7.70;;;9.80;99.90;;;;;;5102672;28;20485;-74
2022/10/31 05:05:53;;;;;;;11.90;7.47;;;9.80;99.90;;;;;;5107278;28;20829;-74
2022/10/31 05:08:20;;;;;;;10.23;8.20;;;9.80;99.90;;;;;;5107648;28;20461;-73
2022/10/31 05:10:47;;;;;;;16.27;8.37;;;9.80;99.90;;;;;;5102963;28;20490;-73
2022/10/31 05:13:14;;;;;;;9.20;8.10;;;9.70;99.90;;;;;;5093483;28;20467;-73
2022/10/31 05:15:42;;;;;;;10.17;7.97;;;9.70;99.90;;;;;;5098336;28;20561;-74
2022/10/31 05:18:09;;;;;;;17.30;8.00;;;9.70;99.90;;;;;;5105669;28;20446;-74
2022/10/31 05:20:36;;;;;;;11.77;7.97;;;9.60;99.90;;;;;;5097484;28;20451;-74
2022/10/31 05:23:02;;;;;;;9.30;8.27;;;9.60;99.90;;;;;;5095811;28;20485;-74
2022/10/31 05:25:30;;;;;;;10.20;8.20;;;9.60;99.90;;;;;;5101501;28;20462;-74
2022/10/31 05:27:57;;;;;;;11.20;8.90;;;9.50;99.90;;;;;;5106471;28;21023;-74
2022/10/31 05:30:25;;;;;;;8.97;8.03;;;9.60;99.90;;;;;;5096667;28;20873;-74
2022/10/31 05:32:53;;;;;;;11.60;8.80;;;9.50;99.90;;;;;;5103711;28;20467;-74
2022/10/31 05:35:22;;;;;;;11.90;7.80;;;9.50;99.90;;;;;;5107058;28;20822;-74
2022/10/31 05:37:49;;;;;;;8.90;7.63;;;9.50;99.90;;;;;;5107785;28;20453;-74
2022/10/31 05:40:18;;;;;;;11.70;8.87;;;9.50;99.90;;;;;;5095368;28;20455;-74
2022/10/31 05:42:45;;;;;;;10.20;9.03;;;9.50;99.90;;;;;;5094175;28;20505;-74
2022/10/31 05:45:13;;;;;;;18.90;9.40;;;9.50;99.90;;;;;;5102814;28;20504;-74
2022/10/31 05:47:40;;;;;;;19.20;9.80;;;9.50;99.90;;;;;;5099723;28;20545;-73
2022/10/31 05:50:10;;;;;;;16.40;9.77;;;9.50;99.90;;;;;;5105271;28;20460;-74
2022/10/31 05:52:37;;;;;;;13.50;9.97;;;9.50;99.90;;;;;;5094001;28;20630;-74
2022/10/31 05:55:04;;;;;;;13.83;9.60;;;9.50;99.90;;;;;;5095879;28;20500;-74
2022/10/31 05:57:33;;;;;;;19.03;9.10;;;9.50;99.90;;;;;;5101443;28;20458;-74
2022/10/31 06:00:00;;;;;;;12.97;9.10;;;9.50;99.90;;;;;;5105321;28;20455;-74
2022/10/31 06:02:26;;;;;;;13.30;9.90;;;9.60;99.90;;;;;;5108734;28;20478;-73
2022/10/31 06:04:53;;;;;;;16.67;9.37;;;9.60;99.90;;;;;;5089697;28;20447;-73
2022/10/31 06:07:21;;;;;;;14.10;9.43;;;9.60;99.90;;;;;;5090324;28;20448;-73
2022/10/31 06:09:48;;;;;;;16.00;10.20;;;9.60;99.90;;;;;;5090707;28;20439;-73
2022/10/31 06:12:15;;;;;;;16.57;9.77;;;9.70;99.90;;;;;;5091886;28;20467;-72
2022/10/31 06:14:41;;;;;;;20.33;11.60;;;9.70;99.90;;;;;;5093470;28;20455;-72
2022/10/31 06:17:08;;;;;;;18.50;10.43;;;9.70;99.90;;;;;;5110047;28;20516;-72
2022/10/31 06:19:34;;;;;;;16.17;9.63;;;9.70;99.90;;;;;;5111137;28;20475;-73
2022/10/31 06:22:01;;;;;;;18.60;10.17;;;9.70;99.90;;;;;;5110591;28;20485;-72
2022/10/31 06:24:29;;;;;;;18.67;10.50;;;9.70;99.90;;;;;;5110342;28;20446;-72
2022/10/31 06:26:56;;;;;;;17.50;10.10;;;9.70;99.90;;;;;;5110382;28;21060;-73
2022/10/31 06:29:22;;;;;;;22.43;11.03;;;9.70;99.90;;;;;;5110653;28;20507;-72
2022/10/31 06:31:52;;;;;;;30.30;11.70;;;9.70;99.90;;;;;;5110680;28;20463;-73
2022/10/31 06:34:18;;;;;;;21.13;10.40;;;9.70;99.90;;;;;;5110732;28;20461;-72
2022/10/31 06:36:46;;;;;;;22.50;11.53;;;9.70;99.90;;;;;;5110543;28;20450;-72
2022/10/31 06:39:13;;;;;;;28.00;11.53;;;9.80;99.90;;;;;;5109957;28;20450;-72
2022/10/31 06:41:41;;;;;;;33.33;12.27;;;9.80;99.90;;;;;;5109889;28;20852;-72
2022/10/31 06:44:08;;;;;;;28.30;12.00;;;9.80;99.90;;;;;;5110266;28;20537;-73
2022/10/31 06:46:35;;;;;;;36.50;11.37;;;9.90;99.90;;;;;;5109622;28;20439;-73
2022/10/31 06:49:02;;;;;;;19.00;11.70;;;10.10;99.90;;;;;;5110501;28;20444;-72
2022/10/31 06:51:28;;;;;;;34.80;12.20;;;10.10;99.90;;;;;;5110118;28;20475;-72
2022/10/31 06:53:55;;;;;;;25.63;11.73;;;10.20;99.90;;;;;;5110351;28;20473;-73
2022/10/31 06:56:22;;;;;;;30.93;11.53;;;10.30;99.90;;;;;;5110392;28;20503;-72
2022/10/31 06:58:50;;;;;;;30.53;11.00;;;10.30;99.90;;;;;;5109614;28;20444;-72
2022/10/31 07:01:16;;;;;;;30.53;12.27;;;10.30;99.90;;;;;;5110424;28;20497;-73
2022/10/31 07:03:43;;;;;;;31.90;10.20;;;10.30;99.90;;;;;;5109678;28;20486;-73
2022/10/31 07:06:10;;;;;;;37.13;12.40;;;10.30;99.90;;;;;;5110190;28;20507;-73
2022/10/31 07:08:36;;;;;;;20.13;9.73;;;10.40;99.90;;;;;;5109946;28;20453;-73
2022/10/31 07:11:03;;;;;;;17.47;10.40;;;10.50;99.90;;;;;;5108103;28;20976;-73
2022/10/31 07:13:30;;;;;;;20.13;9.93;;;10.60;99.90;;;;;;5109386;28;20515;-73
2022/10/31 07:16:06;;;;;;;17.40;10.33;;;10.60;99.90;;;;;;5110103;28;20453;-74
2022/10/31 07:18:33;;;;;;;21.53;10.63;;;10.60;99.90;;;;;;5109732;28;20450;-73
2022/10/31 07:21:00;;;;;;;17.93;10.73;;;10.70;99.90;;;;;;5108489;28;20443;-73
2022/10/31 07:23:27;;;;;;;15.47;10.07;;;10.80;99.90;;;;;;5108183;28;20476;-73
2022/10/31 07:25:56;;;;;;;23.83;11.07;;;10.90;99.90;;;;;;5109594;28;20450;-73
2022/10/31 07:28:23;;;;;;;19.90;11.30;;;11.00;99.90;;;;;;5109694;28;20488;-73
2022/10/31 07:30:51;;;;;;;16.27;10.67;;;11.50;99.90;;;;;;5109581;28;20519;-75
2022/10/31 07:33:19;;;;;;;16.07;10.17;;;12.10;99.90;;;;;;5108984;28;20494;-74
2022/10/31 07:35:46;;;;;;;14.77;9.27;;;12.90;99.90;;;;;;5109934;28;20451;-74
2022/10/31 07:38:14;;;;;;;12.67;8.40;;;13.60;99.90;;;;;;5109569;28;20443;-74
2022/10/31 07:40:42;;;;;;;12.47;8.80;;;13.80;99.90;;;;;;5108949;28;20905;-74
2022/10/31 07:43:11;;;;;;;19.50;9.57;;;13.70;99.90;;;;;;5109383;28;20470;-74
2022/10/31 07:45:38;;;;;;;13.53;8.70;;;13.60;99.90;;;;;;5108166;28;20961;-74
2022/10/31 07:48:05;;;;;;;12.50;8.60;;;13.50;99.90;;;;;;5109459;28;20888;-74
2022/10/31 07:50:34;;;;;;;16.13;8.63;;;13.60;99.90;;;;;;5109477;28;20454;-74
2022/10/31 07:53:01;;;;;;;10.33;8.33;;;13.90;99.90;;;;;;5109311;28;20488;-74
2022/10/31 07:55:29;;;;;;;13.27;8.93;;;14.20;99.90;;;;;;5109109;28;20454;-74
2022/10/31 07:57:59;;;;;;;17.13;9.77;;;14.50;99.90;;;;;;5109190;28;20458;-75
2022/10/31 08:00:27;;;;;;;20.23;10.30;;;14.90;99.90;;;;;;5108203;28;20456;-75
2022/10/31 08:03:01;;;;;;;19.57;10.30;;;15.10;99.90;;;;;;5108143;28;20851;-74
2022/10/31 08:05:28;;;;;;;23.37;10.40;;;15.30;99.90;;;;;;5108490;28;20544;-75
2022/10/31 08:07:57;;;;;;;18.23;9.93;;;15.60;99.90;;;;;;5108430;28;20454;-75
2022/10/31 08:10:24;;;;;;;22.13;9.70;;;15.70;99.90;;;;;;5108866;28;20537;-75
2022/10/31 08:12:57;;;;;;;16.50;9.70;;;15.80;99.90;;;;;;5108012;28;21737;-75
2022/10/31 08:15:23;;;;;;;16.77;10.63;;;15.90;99.90;;;;;;5108460;28;20541;-75
2022/10/31 08:17:50;;;;;;;18.37;8.73;;;16.00;99.90;;;;;;5108324;28;20892;-75
2022/10/31 08:20:17;;;;;;;14.17;9.50;;;16.10;99.90;;;;;;5108606;28;20447;-75
2022/10/31 08:22:44;;;;;;;17.20;9.70;;;16.10;99.90;;;;;;5108228;28;20465;-75
2022/10/31 08:25:12;;;;;;;12.10;9.83;;;16.10;99.90;;;;;;5108464;28;20443;-75
2022/10/31 08:27:38;;;;;;;15.80;9.90;;;16.10;99.90;;;;;;5108179;28;20454;-75
2022/10/31 08:30:06;;;;;;;15.87;9.93;;;16.20;99.90;;;;;;5108421;28;20492;-74
2022/10/31 08:32:33;;;;;;;15.77;9.70;;;16.20;99.90;;;;;;5107552;28;20488;-75
2022/10/31 08:35:00;;;;;;;21.03;10.50;;;16.40;99.90;;;;;;5108096;28;20450;-75
2022/10/31 08:37:27;;;;;;;13.27;10.20;;;16.50;99.90;;;;;;5108512;28;20443;-75
2022/10/31 08:39:53;;;;;;;17.60;11.57;;;16.70;99.90;;;;;;5108209;28;20442;-75
2022/10/31 08:42:21;;;;;;;20.17;11.90;;;16.70;99.90;;;;;;5107328;28;20470;-75
2022/10/31 08:44:48;;;;;;;16.40;11.70;;;16.80;99.90;;;;;;5108507;28;20878;-75
2022/10/31 08:47:15;;;;;;;17.00;11.10;;;17.00;99.90;;;;;;5107151;27;20425;-75
2022/10/31 08:49:41;;;;;;;21.67;11.00;;;17.10;99.90;;;;;;5108418;28;20459;-75
2022/10/31 08:52:08;;;;;;;26.20;11.80;;;17.10;99.90;;;;;;5107889;28;20466;-74
2022/10/31 08:54:35;;;;;;;23.33;11.60;;;17.20;99.90;;;;;;5107597;28;21144;-75
2022/10/31 08:57:01;;;;;;;18.43;12.17;;;17.10;99.90;;;;;;5106924;28;20506;-75
2022/10/31 08:59:29;;;;;;;21.90;11.67;;;17.10;99.90;;;;;;5107451;28;20443;-75
2022/10/31 09:01:56;;;;;;;18.93;11.70;;;17.20;99.90;;;;;;5106417;28;20557;-75
2022/10/31 09:04:23;;;;;;;19.40;11.97;;;17.30;99.90;;;;;;5108231;28;20881;-75
2022/10/31 09:06:49;;;;;;;20.70;12.90;;;17.40;99.90;;;;;;5107031;28;20421;-74
2022/10/31 09:09:16;;;;;;;18.70;12.17;;;17.40;99.90;;;;;;5107975;28;20451;-74
2022/10/31 09:11:43;;;;;;;19.73;11.53;;;17.50;99.90;;;;;;5107693;28;20421;-74
2022/10/31 09:14:09;;;;;;;18.23;11.30;;;17.60;99.90;;;;;;5107580;28;20426;-75
2022/10/31 09:16:37;;;;;;;18.47;12.20;;;17.70;99.90;;;;;;5107741;28;20425;-75
2022/10/31 09:19:04;;;;;;;18.27;12.30;;;17.80;99.90;;;;;;5107806;28;20924;-75
2022/10/31 09:21:31;;;;;;;17.23;11.67;;;17.80;99.90;;;;;;5106959;28;20429;-75
2022/10/31 09:23:57;;;;;;;26.67;12.60;;;17.70;99.90;;;;;;5106978;28;20486;-75
2022/10/31 09:26:24;;;;;;;20.23;12.10;;;17.80;99.90;;;;;;5107500;28;20507;-75
2022/10/31 09:28:51;;;;;;;19.93;12.40;;;17.80;99.90;;;;;;5106640;28;20421;-75
2022/10/31 09:31:17;;;;;;;18.07;11.43;;;17.90;99.90;;;;;;5106403;28;20445;-75
2022/10/31 09:33:45;;;;;;;15.33;11.53;;;18.10;99.90;;;;;;5107864;28;20450;-75
2022/10/31 09:36:12;;;;;;;16.43;10.90;;;18.30;99.90;;;;;;5107445;28;20478;-75
2022/10/31 09:38:39;;;;;;;18.70;12.50;;;18.30;99.90;;;;;;5107269;28;20433;-75
2022/10/31 09:41:16;;;;;;;19.23;11.27;;;18.30;99.90;;;;;;5106785;28;20428;-75
2022/10/31 09:43:51;;;;;;;18.60;12.67;;;18.40;99.90;;;;;;5107658;28;20489;-75
2022/10/31 09:46:27;;;;;;;24.00;12.60;;;18.40;99.90;;;;;;5107919;28;20425;-75
2022/10/31 09:49:13;;;;;;;16.10;11.80;;;18.40;99.90;;;;;;5111394;28;20438;-75
2022/10/31 09:51:44;;;;;;;16.80;12.07;;;18.40;99.90;;;;;;5111508;28;20858;-75
2022/10/31 09:54:16;;;;;;;18.43;12.83;;;18.30;99.90;;;;;;5111574;28;20466;-75
2022/10/31 09:56:44;;;;;;;18.40;12.83;;;18.20;99.90;;;;;;5111180;28;20428;-75
2022/10/31 09:59:18;;;;;;;21.83;13.07;;;18.10;99.90;;;;;;5110459;28;20454;-75
2022/10/31 10:01:50;;;;;;;19.23;12.60;;;18.00;99.90;;;;;;5110602;28;20428;-75
2022/10/31 10:04:35;;;;;;;21.50;13.77;;;17.90;99.90;;;;;;5111258;28;20445;-75
2022/10/31 10:07:08;;;;;;;16.73;12.30;;;17.90;99.90;;;;;;5110358;28;20432;-75
2022/10/31 10:09:35;;;;;;;17.40;12.67;;;18.00;99.90;;;;;;5110026;28;20421;-75
2022/10/31 10:12:14;;;;;;;19.40;13.93;;;18.10;99.90;;;;;;5111164;28;20452;-75
2022/10/31 10:15:01;;;;;;;20.47;13.97;;;18.10;99.90;;;;;;5111472;28;20499;-75
2022/10/31 10:17:37;;;;;;;20.70;13.53;;;18.00;99.90;;;;;;5109807;28;20425;-74
2022/10/31 10:20:24;;;;;;;20.93;12.90;;;17.90;99.90;;;;;;5111090;28;20439;-75
2022/10/31 10:22:58;;;;;;;22.40;12.97;;;17.90;99.90;;;;;;5110323;28;20441;-75
2022/10/31 10:25:32;;;;;;;17.37;12.23;;;18.00;99.90;;;;;;5111007;28;20429;-75
2022/10/31 10:28:08;;;;;;;24.60;14.20;;;18.20;99.90;;;;;;5110834;28;20482;-75
2022/10/31 10:30:41;;;;;;;20.07;12.50;;;18.30;99.90;;;;;;5110089;28;20497;-75
2022/10/31 10:33:12;;;;;;;20.23;13.23;;;18.50;99.90;;;;;;5110565;28;20549;-75
2022/10/31 10:35:44;;;;;;;22.57;13.40;;;18.70;99.90;;;;;;5111238;28;20455;-74
2022/10/31 10:38:20;;;;;;;20.30;13.10;;;18.90;99.90;;;;;;5110717;28;20439;-74
2022/10/31 10:40:47;;;;;;;24.00;13.47;;;19.00;99.90;;;;;;5110601;28;20439;-74
2022/10/31 10:43:24;;;;;;;16.67;12.80;;;19.10;99.90;;;;;;5110657;28;20981;-75
2022/10/31 10:48:44;;;;;;;20.93;13.20;;;19.40;99.90;;;;;;5110097;28;20438;-74
2022/10/31 10:51:23;;;;;;;19.20;13.23;;;19.60;99.90;;;;;;5110667;28;20518;-74
2022/10/31 10:54:17;;;;;;;19.43;13.13;;;19.80;99.90;;;;;;5110665;28;20535;-75
2022/10/31 10:56:56;;;;;;;22.97;12.73;;;19.80;99.90;;;;;;5111055;28;20443;-75
2022/10/31 10:59:23;;;;;;;21.03;13.53;;;19.90;99.90;;;;;;5110261;28;20454;-74
2022/10/31 11:01:52;;;;;;;26.40;12.47;;;19.80;99.90;;;;;;5108908;28;20442;-74
2022/10/31 11:04:28;;;;;;;25.40;13.37;;;19.60;99.90;;;;;;5109168;28;20501;-75
2022/10/31 11:07:05;;;;;;;21.80;12.40;;;19.50;99.90;;;;;;5109715;28;20952;-74
2022/10/31 11:09:33;;;;;;;20.83;12.83;;;19.40;99.90;;;;;;5109749;28;20446;-74
2022/10/31 11:12:00;;;;;;;23.93;12.23;;;19.20;99.90;;;;;;5110105;28;20533;-74
2022/10/31 11:14:28;;;;;;;23.50;13.40;;;19.30;99.90;;;;;;5110081;28;20450;-74
2022/10/31 11:17:12;;;;;;;20.60;12.17;;;19.30;99.90;;;;;;5109565;28;20443;-74
2022/10/31 11:19:39;;;;;;;21.40;13.47;;;19.40;99.90;;;;;;5110234;28;20454;-74
2022/10/31 11:22:18;;;;;;;19.67;11.43;;;19.50;99.90;;;;;;5109146;28;20547;-75
2022/10/31 11:24:45;;;;;;;21.10;12.60;;;19.50;99.90;;;;;;5109704;28;20481;-75
2022/10/31 11:27:17;;;;;;;25.53;12.80;;;19.60;99.90;;;;;;5109741;28;20538;-75
2022/10/31 11:29:44;;;;;;;28.40;13.03;;;19.70;99.90;;;;;;5109388;28;20447;-75
2022/10/31 11:32:20;;;;;;;19.80;12.23;;;19.80;99.90;;;;;;5107095;28;20475;-75
2022/10/31 11:34:50;;;;;;;23.30;11.93;;;19.80;99.90;;;;;;5108882;27;20417;-75
2022/10/31 11:37:21;;;;;;;19.77;11.40;;;19.90;99.90;;;;;;5108750;28;20541;-76
2022/10/31 11:39:54;;;;;;;26.50;12.00;;;20.10;99.90;;;;;;5108400;28;20462;-76
2022/10/31 11:42:23;;;;;;;16.50;10.50;;;20.20;99.90;;;;;;5107704;28;20470;-75
2022/10/31 11:44:52;;;;;;;18.87;11.27;;;20.30;99.90;;;;;;5107964;28;20570;-75
2022/10/31 11:47:26;;;;;;;16.63;9.80;;;20.30;99.90;;;;;;5108839;28;20872;-75
2022/10/31 11:49:53;;;;;;;23.73;9.87;;;20.50;99.90;;;;;;5108932;28;20418;-75
2022/10/31 11:52:25;;;;;;;18.33;10.70;;;20.50;99.90;;;;;;5107137;28;21020;-75
2022/10/31 11:54:55;;;;;;;24.50;10.30;;;20.50;99.90;;;;;;5109033;28;20413;-75
2022/10/31 11:57:29;;;;;;;19.80;10.47;;;20.40;99.90;;;;;;5109339;28;20919;-75
2022/10/31 11:59:57;;;;;;;16.93;10.50;;;20.40;99.90;;;;;;5108636;28;20446;-75
2022/10/31 12:02:25;;;;;;;17.97;9.63;;;20.40;99.90;;;;;;5105946;28;20463;-75
2022/10/31 12:05:03;;;;;;;20.67;9.93;;;20.30;99.90;;;;;;5107745;28;20481;-75
2022/10/31 12:07:31;;;;;;;18.33;9.70;;;20.40;99.90;;;;;;5108781;28;20450;-75
2022/10/31 12:09:58;;;;;;;21.93;10.40;;;20.40;99.90;;;;;;5106525;28;20450;-75
2022/10/31 12:12:51;;;;;;;24.07;11.80;;;20.50;99.90;;;;;;5107938;28;20471;-75
2022/10/31 12:15:28;;;;;;;27.80;11.40;;;20.60;99.90;;;;;;5107312;28;21218;-76
2022/10/31 12:18:13;;;;;;;23.70;11.13;;;20.70;99.90;;;;;;5107884;28;20839;-75
2022/10/31 12:20:53;;;;;;;24.50;11.40;;;20.60;99.90;;;;;;5106511;28;20425;-76
2022/10/31 12:23:31;;;;;;;20.60;10.90;;;20.60;99.90;;;;;;5106751;28;20462;-73
2022/10/31 12:26:10;;;;;;;24.00;9.90;;;20.60;99.90;;;;;;5105722;28;20534;-73
2022/10/31 12:28:52;;;;;;;17.80;9.33;;;20.50;99.90;;;;;;5104388;28;20975;-73
2022/10/31 12:31:30;;;;;;;19.20;10.10;;;20.40;99.90;;;;;;5104386;28;20523;-73
2022/10/31 12:34:13;;;;;;;14.33;9.87;;;20.40;99.90;;;;;;5104809;28;20470;-73
2022/10/31 12:36:49;;;;;;;18.93;9.30;;;20.50;99.90;;;;;;5104771;28;20453;-73
2022/10/31 12:39:25;;;;;;;22.70;9.70;;;20.60;99.90;;;;;;5105501;28;20446;-73
2022/10/31 12:41:55;;;;;;;21.90;9.27;;;20.60;99.90;;;;;;5103889;28;20450;-73
2022/10/31 12:44:58;;;;;;;20.90;9.63;;;20.50;99.90;;;;;;5106814;28;20497;-74
2022/10/31 12:47:41;;;;;;;21.43;10.43;;;20.50;99.90;;;;;;5107658;28;20461;-74
2022/10/31 12:50:20;;;;;;;25.17;9.60;;;20.50;99.90;;;;;;5107191;28;20817;-74
2022/10/31 12:52:57;;;;;;;19.93;10.40;;;20.40;99.90;;;;;;5107443;28;20462;-74